createdAt,value
2023-05-19T00:02:05.704Z,9.70
2023-05-19T00:05:07.994Z,9.60
2023-05-19T00:08:11.222Z,9.60
2023-05-19T00:11:13.042Z,9.60
2023-05-19T00:14:15.169Z,9.50
2023-05-19T00:17:17.158Z,9.50
2023-05-19T00:20:18.851Z,9.50
2023-05-19T00:23:20.529Z,9.50
2023-05-19T00:26:23.078Z,9.50
2023-05-19T00:29:24.747Z,9.40
2023-05-19T00:32:26.518Z,9.40
2023-05-19T00:35:28.214Z,9.40
2023-05-19T00:38:32.106Z,9.30
2023-05-19T00:41:33.799Z,9.30
2023-05-19T00:44:40.329Z,9.30
2023-05-19T00:47:42.071Z,9.20
2023-05-19T00:50:44.717Z,9.20
2023-05-19T00:53:49.412Z,9.20
2023-05-19T00:56:51.301Z,9.10
2023-05-19T00:59:53.005Z,9.10
2023-05-19T01:02:56.044Z,9.10
2023-05-19T01:06:01.606Z,9.10
2023-05-19T01:09:03.732Z,9.10
2023-05-19T01:12:05.668Z,9.10
2023-05-19T01:15:08.182Z,9.10
2023-05-19T01:18:16.837Z,9.10
2023-05-19T01:21:37.798Z,9.10
2023-05-19T01:25:17.566Z,9.00
2023-05-19T01:28:48.980Z,9.00
2023-05-19T01:31:52.477Z,9.00
2023-05-19T01:34:56.045Z,8.90
2023-05-19T01:37:59.297Z,8.90
2023-05-19T01:41:03.923Z,8.80
2023-05-19T01:44:05.820Z,8.80
2023-05-19T01:47:08.293Z,8.80
2023-05-19T01:50:10.984Z,8.80
2023-05-19T01:53:12.773Z,8.80
2023-05-19T01:56:21.865Z,8.80
2023-05-19T01:59:49.318Z,8.70
2023-05-19T02:03:04.971Z,8.70
2023-05-19T02:06:41.322Z,8.60
2023-05-19T02:10:05.161Z,8.60
2023-05-19T02:13:09.034Z,8.60
2023-05-19T02:16:13.287Z,8.60
2023-05-19T02:19:31.974Z,8.60
2023-05-19T02:22:33.634Z,8.60
2023-05-19T02:25:35.322Z,8.60
2023-05-19T02:28:36.988Z,8.60
2023-05-19T02:31:38.766Z,8.60
2023-05-19T02:34:42.170Z,8.50
2023-05-19T02:37:44.317Z,8.60
2023-05-19T02:40:45.914Z,8.50
2023-05-19T02:43:47.522Z,8.50
2023-05-19T02:46:49.240Z,8.50
2023-05-19T02:49:50.938Z,8.40
2023-05-19T02:52:53.822Z,8.40
2023-05-19T02:55:55.456Z,8.40
2023-05-19T02:58:58.370Z,8.40
2023-05-19T03:02:01.567Z,8.30
2023-05-19T03:05:03.818Z,8.30
2023-05-19T03:08:06.127Z,8.30
2023-05-19T03:11:07.730Z,8.30
2023-05-19T03:14:09.463Z,8.20
2023-05-19T03:17:11.139Z,8.20
2023-05-19T03:20:12.962Z,8.10
2023-05-19T03:23:14.528Z,8.10
2023-05-19T03:26:23.149Z,8.10
2023-05-19T03:29:24.913Z,8.10
2023-05-19T03:32:26.770Z,8.00
2023-05-19T03:35:28.990Z,8.00
2023-05-19T03:38:30.621Z,8.00
2023-05-19T03:41:32.438Z,8.00
2023-05-19T03:44:34.143Z,8.00
2023-05-19T03:47:35.876Z,7.90
2023-05-19T03:50:38.006Z,7.90
2023-05-19T03:53:39.683Z,7.90
2023-05-19T03:56:43.293Z,7.90
2023-05-19T03:59:44.960Z,7.90
2023-05-19T04:02:46.786Z,7.90
2023-05-19T04:05:48.567Z,7.90
2023-05-19T04:08:50.442Z,7.90
2023-05-19T04:11:52.172Z,8.00
2023-05-19T04:14:53.933Z,8.00
2023-05-19T04:17:56.670Z,8.00
2023-05-19T04:20:58.380Z,8.00
2023-05-19T04:24:00.170Z,8.10
2023-05-19T04:27:03.540Z,8.20
2023-05-19T04:30:06.244Z,8.20
2023-05-19T04:33:09.238Z,8.30
2023-05-19T04:36:11.489Z,8.20
2023-05-19T04:39:14.404Z,8.30
2023-05-19T04:42:19.152Z,8.30
2023-05-19T04:45:20.838Z,8.40
2023-05-19T04:48:23.051Z,8.40
2023-05-19T04:51:29.737Z,8.50
2023-05-19T04:54:32.291Z,8.60
2023-05-19T04:57:34.016Z,8.70
2023-05-19T05:00:37.080Z,8.70
2023-05-19T05:03:38.850Z,8.70
2023-05-19T05:06:42.455Z,8.80
2023-05-19T05:09:44.128Z,8.80
2023-05-19T05:12:46.041Z,8.90
2023-05-19T05:15:48.410Z,9.00
2023-05-19T05:18:50.606Z,9.10
2023-05-19T05:21:52.472Z,9.10
2023-05-19T05:24:54.388Z,9.30
2023-05-19T05:27:56.212Z,9.40
2023-05-19T05:30:57.852Z,9.60
2023-05-19T05:34:00.001Z,9.90
2023-05-19T05:37:01.615Z,10.10
2023-05-19T05:40:04.560Z,10.40
2023-05-19T05:43:06.214Z,10.50
2023-05-19T05:46:07.935Z,10.60
2023-05-19T05:49:10.129Z,10.70
2023-05-19T05:52:12.697Z,10.90
2023-05-19T05:55:15.571Z,11.10
2023-05-19T05:58:17.313Z,11.20
2023-05-19T06:01:18.918Z,11.20
2023-05-19T06:04:22.222Z,11.00
2023-05-19T06:07:24.301Z,11.00
2023-05-19T06:10:26.222Z,11.10
2023-05-19T06:13:27.900Z,11.10
2023-05-19T06:16:29.633Z,11.20
2023-05-19T06:19:31.853Z,11.40
2023-05-19T06:22:33.560Z,11.60
2023-05-19T06:25:35.619Z,11.80
2023-05-19T06:28:37.403Z,11.90
2023-05-19T06:31:39.177Z,12.00
2023-05-19T06:34:40.948Z,12.00
2023-05-19T06:37:42.769Z,12.10
2023-05-19T06:40:44.470Z,12.30
2023-05-19T06:43:46.102Z,12.30
2023-05-19T06:46:47.878Z,12.30
2023-05-19T06:49:51.550Z,12.40
2023-05-19T06:52:53.444Z,12.70
2023-05-19T06:56:00.062Z,12.90
2023-05-19T06:59:01.906Z,13.10
2023-05-19T07:02:06.740Z,13.10
2023-05-19T07:05:09.179Z,13.20
2023-05-19T07:08:10.985Z,13.30
2023-05-19T07:11:12.671Z,13.40
2023-05-19T07:14:14.362Z,13.40
2023-05-19T07:17:16.028Z,13.60
2023-05-19T07:20:17.704Z,13.80
2023-05-19T07:23:19.336Z,14.00
2023-05-19T07:26:20.979Z,14.00
2023-05-19T07:29:22.642Z,14.20
2023-05-19T07:32:24.799Z,14.40
2023-05-19T07:35:26.870Z,14.60
2023-05-19T07:38:28.799Z,14.90
2023-05-19T07:41:30.603Z,15.10
2023-05-19T07:44:32.400Z,15.10
2023-05-19T07:47:34.082Z,15.20
2023-05-19T07:50:35.750Z,15.30
2023-05-19T07:53:37.445Z,15.70
2023-05-19T07:56:39.105Z,15.90
2023-05-19T07:59:40.726Z,16.10
2023-05-19T08:02:42.488Z,15.90
2023-05-19T08:05:44.405Z,16.00
2023-05-19T08:08:46.257Z,16.20
2023-05-19T08:11:48.223Z,16.30
2023-05-19T08:14:49.963Z,16.20
2023-05-19T08:17:51.765Z,16.20
2023-05-19T08:20:53.412Z,16.20
2023-05-19T08:23:55.151Z,16.30
2023-05-19T08:26:56.752Z,16.50
2023-05-19T08:29:58.586Z,16.50
2023-05-19T08:33:00.453Z,16.40
2023-05-19T08:36:02.216Z,16.50
2023-05-19T08:39:04.017Z,16.50
2023-05-19T08:42:07.893Z,16.60
2023-05-19T08:45:09.994Z,16.60
2023-05-19T08:48:13.299Z,16.70
2023-05-19T08:51:31.215Z,16.90
2023-05-19T08:54:41.338Z,16.90
2023-05-19T08:57:43.503Z,16.90
2023-05-19T09:00:45.905Z,16.90
2023-05-19T09:03:49.793Z,17.00
2023-05-19T09:06:51.968Z,17.00
2023-05-19T09:09:53.617Z,17.20
2023-05-19T09:12:55.372Z,17.30
2023-05-19T09:15:58.045Z,17.50
2023-05-19T09:19:01.029Z,17.60
2023-05-19T09:22:03.427Z,17.80
2023-05-19T09:25:05.402Z,17.80
2023-05-19T09:28:08.983Z,17.90
2023-05-19T09:31:11.315Z,17.90
2023-05-19T09:34:13.864Z,18.20
2023-05-19T09:37:15.751Z,18.30
2023-05-19T09:40:17.414Z,18.40
2023-05-19T09:43:19.147Z,18.30
2023-05-19T09:46:28.379Z,18.30
2023-05-19T09:49:31.203Z,18.30
2023-05-19T09:52:36.054Z,18.60
2023-05-19T09:55:37.735Z,18.60
2023-05-19T09:58:42.020Z,18.60
2023-05-19T10:01:46.573Z,18.60
2023-05-19T10:04:48.717Z,18.70
2023-05-19T10:07:52.268Z,18.60
2023-05-19T10:10:54.246Z,18.70
2023-05-19T10:13:56.284Z,18.90
2023-05-19T10:16:59.372Z,19.00
2023-05-19T10:20:01.355Z,18.80
2023-05-19T10:23:03.938Z,18.70
2023-05-19T10:26:06.858Z,18.80
2023-05-19T10:29:08.867Z,18.80
2023-05-19T10:32:14.427Z,18.50
2023-05-19T10:35:35.746Z,18.60
2023-05-19T10:38:42.950Z,18.70
2023-05-19T10:41:55.126Z,18.60
2023-05-19T10:45:11.201Z,18.30
2023-05-19T10:48:19.329Z,18.30
2023-05-19T10:51:21.160Z,18.20
2023-05-19T10:54:43.358Z,18.40
2023-05-19T10:57:56.857Z,18.60
2023-05-19T11:01:01.718Z,18.70
2023-05-19T11:04:10.848Z,18.70
2023-05-19T11:07:20.148Z,18.70
2023-05-19T11:10:25.439Z,18.80
2023-05-19T11:16:32.141Z,19.10
2023-05-19T11:19:37.126Z,19.10
2023-05-19T11:22:40.109Z,19.10
2023-05-19T11:25:49.975Z,19.30
2023-05-19T11:28:51.990Z,19.60
2023-05-19T11:31:54.442Z,19.70
2023-05-19T11:34:57.532Z,19.90
2023-05-19T11:37:59.429Z,19.60
2023-05-19T11:41:01.433Z,19.50
2023-05-19T11:44:03.104Z,19.60
2023-05-19T11:47:05.748Z,19.70
2023-05-19T11:50:07.839Z,20.00
2023-05-19T11:53:13.167Z,20.30
2023-05-19T11:56:15.161Z,20.50
2023-05-19T11:59:16.788Z,20.70
2023-05-19T12:02:25.857Z,20.60
2023-05-19T12:05:28.830Z,20.40
2023-05-19T12:08:30.517Z,20.20
2023-05-19T12:11:32.204Z,20.20
2023-05-19T12:14:34.498Z,20.20
2023-05-19T12:17:36.498Z,20.10
2023-05-19T12:20:38.302Z,20.20
2023-05-19T12:23:41.461Z,20.20
2023-05-19T12:26:43.304Z,20.30
2023-05-19T12:29:53.125Z,20.40
2023-05-19T12:32:57.534Z,20.40
2023-05-19T12:35:59.828Z,20.50
2023-05-19T12:39:04.767Z,20.70
2023-05-19T12:42:10.947Z,20.90
2023-05-19T12:45:12.763Z,21.30
2023-05-19T12:48:18.081Z,21.20
2023-05-19T12:51:20.420Z,21.10
2023-05-19T12:54:22.826Z,21.30
2023-05-19T12:57:26.198Z,21.50
2023-05-19T13:00:30.995Z,21.80
2023-05-19T13:03:33.013Z,21.90
2023-05-19T13:06:35.013Z,21.80
2023-05-19T13:09:36.660Z,21.60
2023-05-19T13:12:38.766Z,21.50
2023-05-19T13:15:48.547Z,21.70
2023-05-19T13:18:51.426Z,21.80
2023-05-19T13:21:53.255Z,21.90
2023-05-19T13:24:58.655Z,22.00
2023-05-19T13:28:03.918Z,22.10
2023-05-19T13:31:05.721Z,22.30
2023-05-19T13:34:07.891Z,22.40
2023-05-19T13:37:10.046Z,22.20
2023-05-19T13:40:13.243Z,21.60
2023-05-19T13:43:14.968Z,21.50
2023-05-19T13:46:16.694Z,21.40
2023-05-19T13:49:18.389Z,21.30
2023-05-19T13:52:23.584Z,21.20
2023-05-19T13:55:27.273Z,21.10
2023-05-19T13:58:30.418Z,21.10
2023-05-19T14:01:32.801Z,20.80
2023-05-19T14:04:38.408Z,20.60
2023-05-19T14:07:40.215Z,20.40
2023-05-19T14:10:43.067Z,20.40
2023-05-19T14:13:44.846Z,20.50
2023-05-19T14:16:46.614Z,20.70
2023-05-19T14:19:48.281Z,20.70
2023-05-19T14:22:50.084Z,20.90
2023-05-19T14:25:51.854Z,21.00
2023-05-19T14:28:53.504Z,21.40
2023-05-19T14:31:55.229Z,21.80
2023-05-19T14:34:56.896Z,21.80
2023-05-19T14:37:58.495Z,21.80
2023-05-19T14:41:00.161Z,21.50
2023-05-19T14:44:01.796Z,21.40
2023-05-19T14:47:04.118Z,21.40
2023-05-19T14:50:06.226Z,21.60
2023-05-19T14:53:07.849Z,21.80
2023-05-19T14:56:09.520Z,21.90
2023-05-19T14:59:11.252Z,21.70
2023-05-19T15:02:12.843Z,21.60
2023-05-19T15:05:14.543Z,21.60
2023-05-19T15:08:16.586Z,21.50
2023-05-19T15:11:18.340Z,21.40
2023-05-19T15:14:19.986Z,21.40
2023-05-19T15:17:21.726Z,21.50
2023-05-19T15:20:23.394Z,21.50
2023-05-19T15:23:25.107Z,21.70
2023-05-19T15:26:29.639Z,22.00
2023-05-19T15:29:31.500Z,22.00
2023-05-19T15:32:33.755Z,22.20
2023-05-19T15:35:35.437Z,22.20
2023-05-19T15:38:37.209Z,22.10
2023-05-19T15:41:39.701Z,21.90
2023-05-19T15:44:41.412Z,21.60
2023-05-19T15:47:43.027Z,21.40
2023-05-19T15:50:52.312Z,21.20
2023-05-19T15:53:54.271Z,20.90
2023-05-19T15:56:55.904Z,20.80
2023-05-19T15:59:57.545Z,20.80
2023-05-19T16:02:59.290Z,20.60
2023-05-19T16:06:01.167Z,20.70
2023-05-19T16:09:03.532Z,20.80
2023-05-19T16:12:05.498Z,20.90
2023-05-19T16:15:07.675Z,20.90
2023-05-19T16:18:09.396Z,20.80
2023-05-19T16:21:11.092Z,20.70
2023-05-19T16:24:13.051Z,20.70
2023-05-19T16:27:14.771Z,20.70
2023-05-19T16:30:16.723Z,20.60
2023-05-19T16:33:18.409Z,20.60
2023-05-19T16:36:22.590Z,20.50
2023-05-19T16:39:24.463Z,20.50
2023-05-19T16:42:26.966Z,20.30
2023-05-19T16:45:28.709Z,20.30
2023-05-19T16:48:30.617Z,20.30
2023-05-19T16:51:32.386Z,20.30
2023-05-19T16:54:34.614Z,20.20
2023-05-19T16:57:36.390Z,20.10
2023-05-19T17:00:38.112Z,20.00
2023-05-19T17:03:39.831Z,20.00
2023-05-19T17:06:41.688Z,20.10
2023-05-19T17:09:44.046Z,20.10
2023-05-19T17:12:45.769Z,20.10
2023-05-19T17:15:52.304Z,20.10
2023-05-19T17:18:54.091Z,20.10
2023-05-19T17:21:56.142Z,20.00
2023-05-19T17:24:57.965Z,20.00
2023-05-19T17:27:59.609Z,20.00
2023-05-19T17:31:01.734Z,19.90
2023-05-19T17:34:03.419Z,19.90
2023-05-19T17:37:05.109Z,19.90
2023-05-19T17:40:07.490Z,19.80
2023-05-19T17:43:09.138Z,19.90
2023-05-19T17:46:11.636Z,19.80
2023-05-19T17:49:13.866Z,19.80
2023-05-19T17:52:16.406Z,19.70
2023-05-19T17:55:18.718Z,19.60
2023-05-19T17:58:20.765Z,19.50
2023-05-19T18:01:25.627Z,19.40
2023-05-19T18:04:27.758Z,19.30
2023-05-19T18:07:30.216Z,19.30
2023-05-19T18:10:36.044Z,19.10
2023-05-19T18:13:39.200Z,19.10
2023-05-19T18:16:40.846Z,19.00
2023-05-19T18:19:42.545Z,19.00
2023-05-19T18:22:44.218Z,19.00
2023-05-19T18:25:50.816Z,18.90
2023-05-19T18:28:52.426Z,18.90
2023-05-19T18:31:54.113Z,18.70
2023-05-19T18:34:55.778Z,18.60
2023-05-19T18:37:57.465Z,18.60
2023-05-19T18:41:00.724Z,18.50
2023-05-19T18:44:02.394Z,18.40
2023-05-19T18:47:04.220Z,18.40
2023-05-19T18:50:06.972Z,18.30
2023-05-19T18:53:08.641Z,18.30
2023-05-19T18:56:15.140Z,18.20
2023-05-19T18:59:16.773Z,18.20
2023-05-19T19:02:18.517Z,18.10
2023-05-19T19:05:21.310Z,18.00
2023-05-19T19:08:23.175Z,17.90
2023-05-19T19:11:24.829Z,17.90
2023-05-19T19:14:26.525Z,17.80
2023-05-19T19:17:28.213Z,17.80
2023-05-19T19:20:30.378Z,17.70
2023-05-19T19:23:32.374Z,17.60
2023-05-19T19:26:33.980Z,17.60
2023-05-19T19:29:35.841Z,17.50
2023-05-19T19:32:37.486Z,17.50
2023-05-19T19:35:39.127Z,17.40
2023-05-19T19:38:40.854Z,17.30
2023-05-19T19:41:42.547Z,17.30
2023-05-19T19:44:44.181Z,17.30
2023-05-19T19:47:46.272Z,17.30
2023-05-19T19:50:53.875Z,17.20
2023-05-19T19:53:55.536Z,17.10
2023-05-19T19:56:57.249Z,17.10
2023-05-19T20:00:07.369Z,17.10
2023-05-19T20:03:09.127Z,17.10
2023-05-19T20:06:10.799Z,17.00
2023-05-19T20:09:12.453Z,17.00
2023-05-19T20:12:14.138Z,17.00
2023-05-19T20:15:16.214Z,16.90
2023-05-19T20:18:17.928Z,16.90
2023-05-19T20:21:19.554Z,16.80
2023-05-19T20:24:21.275Z,16.80
2023-05-19T20:27:22.877Z,16.80
2023-05-19T20:30:24.781Z,16.70
2023-05-19T20:33:26.606Z,16.70
2023-05-19T20:36:28.237Z,16.60
2023-05-19T20:39:31.099Z,16.60
2023-05-19T20:42:33.604Z,16.50
2023-05-19T20:45:35.536Z,16.50
2023-05-19T20:48:37.367Z,16.50
2023-05-19T20:51:39.084Z,16.40
2023-05-19T20:54:40.704Z,16.40
2023-05-19T20:57:43.787Z,16.30
2023-05-19T21:00:47.352Z,16.20
2023-05-19T21:03:48.978Z,16.20
2023-05-19T21:06:50.721Z,16.10
2023-05-19T21:09:54.273Z,16.00
2023-05-19T21:13:00.795Z,16.00
2023-05-19T21:16:02.817Z,15.90
2023-05-19T21:19:06.457Z,15.80
2023-05-19T21:22:08.130Z,15.80
2023-05-19T21:25:10.266Z,15.70
2023-05-19T21:28:14.776Z,15.70
2023-05-19T21:31:16.745Z,15.60
2023-05-19T21:34:18.642Z,15.60
2023-05-19T21:37:21.497Z,15.50
2023-05-19T21:40:23.302Z,15.50
2023-05-19T21:43:26.266Z,15.40
2023-05-19T21:46:29.099Z,15.40
2023-05-19T21:49:31.384Z,15.40
2023-05-19T21:52:33.272Z,15.30
2023-05-19T21:55:35.059Z,15.30
2023-05-19T21:58:37.046Z,15.20
2023-05-19T22:01:38.887Z,15.20
2023-05-19T22:04:42.440Z,15.20
2023-05-19T22:07:44.328Z,15.10
2023-05-19T22:10:49.992Z,15.10
2023-05-19T22:13:54.556Z,15.10
2023-05-19T22:16:56.440Z,15.10
2023-05-19T22:19:58.397Z,15.00
2023-05-19T22:23:01.316Z,15.00
2023-05-19T22:26:03.178Z,14.90
2023-05-19T22:29:04.820Z,14.90
2023-05-19T22:32:11.783Z,14.80
2023-05-19T22:35:13.499Z,14.80
2023-05-19T22:38:15.214Z,14.70
2023-05-19T22:41:16.834Z,14.60
2023-05-19T22:44:19.488Z,14.60
2023-05-19T22:47:21.649Z,14.50
2023-05-19T22:50:23.269Z,14.40
2023-05-19T22:53:25.124Z,14.30
2023-05-19T22:56:26.950Z,14.20
2023-05-19T22:59:29.040Z,14.20
2023-05-19T23:02:30.781Z,14.10
2023-05-19T23:05:32.482Z,14.00
2023-05-19T23:08:34.260Z,14.00
2023-05-19T23:11:36.017Z,13.90
2023-05-19T23:14:37.679Z,13.80
2023-05-19T23:17:39.462Z,13.80
2023-05-19T23:20:41.151Z,13.70
2023-05-19T23:23:42.875Z,13.70
2023-05-19T23:26:44.600Z,13.60
2023-05-19T23:29:50.429Z,13.60
2023-05-19T23:32:52.960Z,13.60
2023-05-19T23:35:54.743Z,13.50
2023-05-19T23:38:56.381Z,13.50
2023-05-19T23:41:58.169Z,13.40
2023-05-19T23:45:01.532Z,13.40
2023-05-19T23:48:03.274Z,13.30
2023-05-19T23:51:05.391Z,13.30
2023-05-19T23:54:07.085Z,13.30
2023-05-19T23:57:08.809Z,13.30
